createdAt,value
2022-11-20T00:01:21.599Z,71.66
2022-11-20T00:03:48.648Z,71.40
2022-11-20T00:06:17.777Z,71.09
2022-11-20T00:08:45.094Z,71.20
2022-11-20T00:11:16.919Z,71.15
2022-11-20T00:13:48.762Z,71.33
2022-11-20T00:16:18.378Z,71.37
2022-11-20T00:18:45.831Z,71.54
2022-11-20T00:21:14.962Z,72.01
2022-11-20T00:23:42.528Z,71.96
2022-11-20T00:26:11.627Z,72.95
2022-11-20T00:28:38.519Z,73.09
2022-11-20T00:31:11.300Z,72.69
2022-11-20T00:33:38.166Z,73.25
2022-11-20T00:36:07.834Z,73.09
2022-11-20T00:38:34.974Z,72.85
2022-11-20T00:41:05.710Z,73.10
2022-11-20T00:43:32.247Z,74.07
2022-11-20T00:46:00.147Z,73.84
2022-11-20T00:48:27.137Z,73.54
2022-11-20T00:50:54.548Z,72.50
2022-11-20T00:53:21.996Z,72.98
2022-11-20T00:55:58.496Z,72.73
2022-11-20T00:58:29.128Z,72.92
2022-11-20T01:01:02.114Z,72.60
2022-11-20T01:03:28.904Z,72.01
2022-11-20T01:05:55.355Z,72.73
2022-11-20T01:08:21.912Z,72.81
2022-11-20T01:10:48.396Z,72.31
2022-11-20T01:13:33.301Z,72.82
2022-11-20T01:16:13.781Z,72.32
2022-11-20T01:18:43.131Z,72.17
2022-11-20T01:21:14.044Z,71.73
2022-11-20T01:23:42.796Z,72.11
2022-11-20T01:26:16.754Z,72.33
2022-11-20T01:28:43.863Z,71.48
2022-11-20T01:31:23.669Z,71.18
2022-11-20T01:33:52.497Z,71.61
2022-11-20T01:36:20.861Z,71.70
2022-11-20T01:38:47.696Z,71.57
2022-11-20T01:41:36.098Z,71.02
2022-11-20T01:44:04.867Z,70.24
2022-11-20T01:46:37.734Z,70.20
2022-11-20T01:49:13.169Z,70.36
2022-11-20T01:52:04.031Z,70.36
2022-11-20T01:54:40.430Z,70.07
2022-11-20T01:57:09.946Z,70.54
2022-11-20T01:59:42.818Z,70.37
2022-11-20T02:02:09.383Z,69.71
2022-11-20T02:04:36.537Z,69.96
2022-11-20T02:07:06.151Z,70.23
2022-11-20T02:09:32.741Z,70.23
2022-11-20T02:11:59.889Z,70.85
2022-11-20T02:14:27.418Z,71.49
2022-11-20T02:16:55.995Z,72.02
2022-11-20T02:19:28.832Z,71.65
2022-11-20T02:22:19.464Z,72.05
2022-11-20T02:24:47.138Z,71.63
2022-11-20T02:27:15.042Z,71.95
2022-11-20T02:29:51.570Z,72.46
2022-11-20T02:32:22.166Z,72.41
2022-11-20T02:34:49.867Z,71.90
2022-11-20T02:37:16.877Z,72.25
2022-11-20T02:39:45.656Z,71.98
2022-11-20T02:42:12.170Z,72.25
2022-11-20T02:44:38.722Z,72.09
2022-11-20T02:47:05.428Z,72.15
2022-11-20T02:49:32.227Z,72.24
2022-11-20T02:51:58.726Z,72.26
2022-11-20T02:54:25.892Z,72.07
2022-11-20T02:56:53.262Z,71.82
2022-11-20T02:59:20.173Z,72.07
2022-11-20T03:04:12.258Z,72.23
2022-11-20T03:06:38.812Z,72.06
2022-11-20T03:09:05.262Z,71.74
2022-11-20T03:11:31.803Z,72.14
2022-11-20T03:13:58.277Z,72.25
2022-11-20T03:16:25.051Z,72.43
2022-11-20T03:18:53.388Z,71.97
2022-11-20T03:21:19.861Z,71.47
2022-11-20T03:23:46.349Z,71.80
2022-11-20T03:26:18.309Z,71.97
2022-11-20T03:28:50.615Z,72.34
2022-11-20T03:31:18.871Z,73.20
2022-11-20T03:33:45.687Z,73.03
2022-11-20T03:36:16.455Z,72.54
2022-11-20T03:38:43.377Z,73.09
2022-11-20T03:41:16.489Z,73.63
2022-11-20T03:43:43.019Z,73.69
2022-11-20T03:46:09.697Z,74.01
2022-11-20T03:48:36.241Z,73.62
2022-11-20T03:51:17.726Z,74.05
2022-11-20T03:53:46.246Z,74.50
2022-11-20T03:56:14.442Z,74.33
2022-11-20T03:58:41.968Z,75.20
2022-11-20T04:01:11.406Z,74.65
2022-11-20T04:03:39.693Z,75.04
2022-11-20T04:06:09.642Z,75.79
2022-11-20T04:08:36.173Z,76.04
2022-11-20T04:11:12.777Z,76.15
2022-11-20T04:13:39.933Z,76.40
2022-11-20T04:16:07.766Z,76.82
2022-11-20T04:18:35.016Z,77.39
2022-11-20T04:21:01.886Z,77.51
2022-11-20T04:23:29.105Z,77.11
2022-11-20T04:25:56.033Z,76.58
2022-11-20T04:28:22.546Z,77.00
2022-11-20T04:30:49.043Z,77.11
2022-11-20T04:33:15.659Z,77.26
2022-11-20T04:35:42.178Z,77.19
2022-11-20T04:38:08.689Z,77.26
2022-11-20T04:40:35.704Z,77.48
2022-11-20T04:43:02.202Z,77.59
2022-11-20T04:45:28.701Z,78.22
2022-11-20T04:47:55.279Z,78.02
2022-11-20T04:50:21.775Z,78.38
2022-11-20T04:52:48.244Z,78.26
2022-11-20T04:55:14.774Z,77.54
2022-11-20T04:57:41.306Z,78.06
2022-11-20T05:00:08.478Z,76.91
2022-11-20T05:02:35.094Z,77.26
2022-11-20T05:05:01.688Z,78.08
2022-11-20T05:07:28.221Z,77.48
2022-11-20T05:09:54.691Z,77.33
2022-11-20T05:12:21.212Z,77.49
2022-11-20T05:14:47.685Z,78.54
2022-11-20T05:17:14.395Z,78.62
2022-11-20T05:19:40.900Z,78.86
2022-11-20T05:22:07.403Z,78.38
2022-11-20T05:24:33.926Z,78.13
2022-11-20T05:27:00.414Z,78.44
2022-11-20T05:29:26.992Z,78.12
2022-11-20T05:31:53.506Z,78.51
2022-11-20T05:34:20.055Z,78.22
2022-11-20T05:36:46.564Z,78.06
2022-11-20T05:39:13.161Z,77.30
2022-11-20T05:41:39.703Z,77.34
2022-11-20T05:44:06.204Z,77.23
2022-11-20T05:46:32.771Z,77.13
2022-11-20T05:48:59.718Z,76.97
2022-11-20T05:51:26.852Z,77.07
2022-11-20T05:53:53.472Z,77.14
2022-11-20T05:56:22.260Z,77.42
2022-11-20T05:58:49.678Z,77.74
2022-11-20T06:01:19.462Z,77.80
2022-11-20T06:03:48.602Z,77.83
2022-11-20T06:06:16.373Z,78.18
2022-11-20T06:08:43.033Z,78.42
2022-11-20T06:11:12.023Z,77.91
2022-11-20T06:13:42.090Z,78.12
2022-11-20T06:16:09.781Z,78.25
2022-11-20T06:18:36.368Z,77.53
2022-11-20T06:21:06.817Z,77.70
2022-11-20T06:23:34.695Z,77.41
2022-11-20T06:26:06.188Z,76.57
2022-11-20T06:28:33.130Z,76.23
2022-11-20T06:31:00.132Z,75.62
2022-11-20T06:33:27.097Z,75.54
2022-11-20T06:35:59.560Z,75.47
2022-11-20T06:38:28.017Z,74.81
2022-11-20T06:40:55.353Z,74.00
2022-11-20T06:43:22.783Z,73.94
2022-11-20T06:45:54.726Z,73.50
2022-11-20T06:48:21.973Z,72.90
2022-11-20T06:50:48.783Z,72.39
2022-11-20T06:53:15.890Z,71.85
2022-11-20T06:55:47.254Z,71.92
2022-11-20T06:58:15.143Z,70.82
2022-11-20T07:00:41.981Z,71.04
2022-11-20T07:03:10.361Z,71.26
2022-11-20T07:05:37.430Z,70.76
2022-11-20T07:08:04.402Z,69.65
2022-11-20T07:10:30.922Z,69.87
2022-11-20T07:12:57.459Z,69.72
2022-11-20T07:15:26.049Z,70.16
2022-11-20T07:17:52.887Z,68.59
2022-11-20T07:20:19.352Z,68.70
2022-11-20T07:22:46.027Z,68.07
2022-11-20T07:25:12.690Z,66.87
2022-11-20T07:27:39.205Z,65.90
2022-11-20T07:30:06.326Z,65.43
2022-11-20T07:32:32.806Z,64.50
2022-11-20T07:34:59.915Z,64.80
2022-11-20T07:37:26.454Z,65.50
2022-11-20T07:39:52.931Z,65.28
2022-11-20T07:42:19.418Z,65.65
2022-11-20T07:44:45.983Z,65.13
2022-11-20T07:47:12.477Z,64.99
2022-11-20T07:49:38.969Z,65.54
2022-11-20T07:52:05.574Z,66.32
2022-11-20T07:54:32.087Z,65.45
2022-11-20T07:56:58.663Z,65.11
2022-11-20T07:59:25.692Z,65.21
2022-11-20T08:01:52.230Z,63.47
2022-11-20T08:04:18.718Z,63.33
2022-11-20T08:06:45.243Z,63.78
2022-11-20T08:09:11.790Z,64.07
2022-11-20T08:11:56.898Z,63.75
2022-11-20T08:14:23.510Z,63.55
2022-11-20T08:16:50.733Z,61.37
2022-11-20T08:19:19.153Z,59.53
2022-11-20T08:21:46.162Z,59.02
2022-11-20T08:24:13.223Z,61.11
2022-11-20T08:26:40.644Z,63.21
2022-11-20T08:29:07.424Z,64.95
2022-11-20T08:31:34.262Z,63.30
2022-11-20T08:34:00.760Z,63.50
2022-11-20T08:36:34.264Z,64.37
2022-11-20T08:39:00.903Z,64.88
2022-11-20T08:41:34.250Z,64.25
2022-11-20T08:44:03.795Z,65.67
2022-11-20T08:46:44.770Z,65.51
2022-11-20T08:49:13.542Z,65.71
2022-11-20T08:51:40.751Z,65.94
2022-11-20T08:54:07.641Z,67.95
2022-11-20T08:56:34.646Z,67.85
2022-11-20T08:59:31.312Z,67.81
2022-11-20T09:01:47.795Z,68.12
2022-11-20T09:04:15.424Z,66.94
2022-11-20T09:06:42.312Z,68.14
2022-11-20T09:09:08.956Z,68.15
2022-11-20T09:11:36.956Z,68.17
2022-11-20T09:14:03.856Z,68.09
2022-11-20T09:16:30.743Z,68.04
2022-11-20T09:19:20.623Z,67.30
2022-11-20T09:21:43.972Z,66.85
2022-11-20T09:24:10.613Z,67.38
2022-11-20T09:26:37.247Z,67.32
2022-11-20T09:29:04.006Z,67.60
2022-11-20T09:31:30.549Z,67.69
2022-11-20T09:33:57.045Z,67.68
2022-11-20T09:36:23.711Z,67.64
2022-11-20T09:38:50.225Z,67.50
2022-11-20T09:41:57.011Z,67.51
2022-11-20T09:44:45.194Z,67.16
2022-11-20T09:47:37.836Z,67.57
2022-11-20T09:50:32.111Z,66.52
2022-11-20T09:53:11.181Z,66.33
2022-11-20T09:55:38.639Z,67.15
2022-11-20T09:58:17.623Z,67.20
2022-11-20T10:00:45.442Z,67.11
2022-11-20T10:03:27.841Z,66.88
2022-11-20T10:05:55.977Z,73.42
2022-11-20T10:08:45.459Z,66.54
2022-11-20T10:11:24.714Z,65.78
2022-11-20T10:14:16.938Z,66.50
2022-11-20T10:17:04.975Z,66.30
2022-11-20T10:20:06.842Z,66.66
2022-11-20T10:23:04.100Z,66.48
2022-11-20T10:25:41.249Z,66.97
2022-11-20T10:28:16.775Z,66.15
2022-11-20T10:30:47.055Z,66.10
2022-11-20T10:33:29.055Z,66.23
2022-11-20T10:36:14.903Z,66.88
2022-11-20T10:38:45.909Z,67.35
2022-11-20T10:41:27.432Z,67.35
2022-11-20T10:44:02.943Z,66.71
2022-11-20T10:46:38.787Z,66.60
2022-11-20T10:49:12.600Z,66.67
2022-11-20T10:51:45.301Z,66.61
2022-11-20T10:54:23.077Z,66.80
2022-11-20T10:57:00.638Z,66.59
2022-11-20T10:59:43.427Z,66.40
2022-11-20T11:02:22.898Z,66.44
2022-11-20T11:04:54.352Z,66.78
2022-11-20T11:07:24.165Z,66.55
2022-11-20T11:09:55.982Z,66.63
2022-11-20T11:12:27.414Z,66.21
2022-11-20T11:14:57.114Z,66.19
2022-11-20T11:17:31.368Z,65.12
2022-11-20T11:20:04.694Z,65.21
2022-11-20T11:22:33.545Z,65.34
2022-11-20T11:25:01.038Z,64.99
2022-11-20T11:27:27.914Z,64.90
2022-11-20T11:30:14.705Z,64.74
2022-11-20T11:32:41.388Z,64.37
2022-11-20T11:35:26.548Z,64.58
2022-11-20T11:38:13.610Z,64.30
2022-11-20T11:40:41.689Z,64.37
2022-11-20T11:43:38.466Z,64.28
2022-11-20T11:46:30.159Z,64.66
2022-11-20T11:49:05.768Z,64.58
2022-11-20T11:51:51.288Z,64.10
2022-11-20T11:54:26.503Z,64.61
2022-11-20T11:56:54.882Z,64.04
2022-11-20T11:59:55.762Z,63.78
2022-11-20T12:02:51.211Z,63.92
2022-11-20T12:05:59.805Z,63.81
2022-11-20T12:08:36.823Z,63.68
2022-11-20T12:11:32.110Z,63.94
2022-11-20T12:14:25.268Z,63.83
2022-11-20T12:16:53.837Z,63.55
2022-11-20T12:19:21.259Z,63.42
2022-11-20T12:22:25.715Z,63.30
2022-11-20T12:25:09.969Z,63.29
2022-11-20T12:27:48.587Z,63.36
2022-11-20T12:30:20.501Z,63.49
2022-11-20T12:32:56.425Z,62.96
2022-11-20T12:36:00.531Z,63.05
2022-11-20T12:38:59.479Z,63.22
2022-11-20T12:42:03.020Z,63.29
2022-11-20T12:45:12.179Z,63.38
2022-11-20T12:48:24.494Z,63.27
2022-11-20T12:51:28.622Z,63.35
2022-11-20T12:54:01.146Z,65.55
2022-11-20T12:56:46.622Z,72.46
2022-11-20T12:59:51.151Z,68.15
2022-11-20T13:02:42.499Z,64.86
2022-11-20T13:05:28.325Z,63.35
2022-11-20T13:07:56.083Z,63.23
2022-11-20T13:10:35.220Z,71.72
2022-11-20T13:13:13.321Z,66.79
2022-11-20T13:15:55.296Z,63.33
2022-11-20T13:18:22.293Z,63.31
2022-11-20T13:20:50.619Z,64.36
2022-11-20T13:23:28.700Z,65.92
2022-11-20T13:26:20.092Z,65.02
2022-11-20T13:28:48.502Z,65.22
2022-11-20T13:31:32.509Z,66.04
2022-11-20T13:34:01.005Z,66.04
2022-11-20T13:36:29.761Z,66.10
2022-11-20T13:38:57.378Z,67.78
2022-11-20T13:41:29.781Z,66.93
2022-11-20T13:44:08.865Z,67.36
2022-11-20T13:46:42.131Z,67.99
2022-11-20T13:49:19.483Z,67.54
2022-11-20T13:51:51.784Z,68.41
2022-11-20T13:54:52.970Z,68.52
2022-11-20T13:57:25.643Z,68.76
2022-11-20T14:00:13.203Z,68.80
2022-11-20T14:05:14.645Z,70.31
2022-11-20T14:07:43.600Z,70.48
2022-11-20T14:10:31.106Z,70.88
2022-11-20T14:12:58.853Z,70.57
2022-11-20T14:15:30.838Z,71.09
2022-11-20T14:17:58.733Z,71.14
2022-11-20T14:23:12.897Z,77.31
2022-11-20T14:25:44.342Z,71.25
2022-11-20T14:28:28.450Z,71.83
2022-11-20T14:30:56.666Z,71.65
2022-11-20T14:33:28.529Z,71.61
2022-11-20T14:35:57.488Z,71.68
2022-11-20T14:38:29.861Z,72.06
2022-11-20T14:41:10.499Z,72.76
2022-11-20T14:43:38.759Z,71.56
2022-11-20T14:46:12.165Z,72.12
2022-11-20T14:48:51.201Z,72.32
2022-11-20T14:51:28.303Z,72.37
2022-11-20T14:53:54.978Z,72.36
2022-11-20T14:56:28.082Z,72.72
2022-11-20T14:58:59.567Z,73.03
2022-11-20T15:01:29.122Z,73.69
2022-11-20T15:04:08.976Z,73.83
2022-11-20T15:06:36.230Z,73.75
2022-11-20T15:09:06.507Z,74.04
2022-11-20T15:11:36.873Z,74.03
2022-11-20T15:14:06.960Z,74.58
2022-11-20T15:16:33.820Z,74.69
2022-11-20T15:19:01.406Z,75.01
2022-11-20T15:21:31.194Z,74.94
2022-11-20T15:23:59.433Z,74.93
2022-11-20T15:26:29.405Z,75.32
2022-11-20T15:28:56.146Z,75.34
2022-11-20T15:31:24.777Z,75.08
2022-11-20T15:33:52.068Z,74.97
2022-11-20T15:36:18.698Z,75.31
2022-11-20T15:38:48.097Z,75.53
2022-11-20T15:41:14.654Z,75.50
2022-11-20T15:43:43.983Z,75.73
2022-11-20T15:46:15.038Z,75.98
2022-11-20T15:48:47.948Z,76.35
2022-11-20T15:51:47.831Z,76.23
2022-11-20T15:54:18.809Z,76.30
2022-11-20T15:56:45.309Z,76.80
2022-11-20T15:59:11.878Z,77.17
2022-11-20T16:01:38.845Z,77.45
2022-11-20T16:04:09.867Z,77.44
2022-11-20T16:06:36.349Z,78.39
2022-11-20T16:09:03.150Z,78.46
2022-11-20T16:11:29.645Z,79.05
2022-11-20T16:14:14.982Z,79.32
2022-11-20T16:16:42.791Z,79.41
2022-11-20T16:19:13.660Z,79.42
2022-11-20T16:21:43.590Z,79.50
2022-11-20T16:24:13.809Z,79.61
2022-11-20T16:26:41.140Z,79.80
2022-11-20T16:29:11.238Z,79.99
2022-11-20T16:31:38.071Z,79.77
2022-11-20T16:34:11.850Z,79.87
2022-11-20T16:36:44.612Z,80.58
2022-11-20T16:39:22.078Z,80.42
2022-11-20T16:41:50.132Z,80.28
2022-11-20T16:44:23.976Z,80.38
2022-11-20T16:46:50.681Z,80.32
2022-11-20T16:49:17.378Z,80.34
2022-11-20T16:51:44.410Z,80.49
2022-11-20T16:54:21.096Z,80.23
2022-11-20T16:56:48.382Z,80.48
2022-11-20T16:59:15.319Z,80.42
2022-11-20T17:01:43.196Z,80.29
2022-11-20T17:04:09.829Z,80.46
2022-11-20T17:06:42.103Z,81.02
2022-11-20T17:09:09.862Z,80.62
2022-11-20T17:11:39.652Z,81.18
2022-11-20T17:14:10.144Z,80.97
2022-11-20T17:16:41.791Z,81.14
2022-11-20T17:19:11.592Z,80.82
2022-11-20T17:21:48.774Z,80.67
2022-11-20T17:24:27.809Z,80.27
2022-11-20T17:27:09.873Z,80.21
2022-11-20T17:29:41.765Z,79.97
2022-11-20T17:32:13.016Z,80.26
2022-11-20T17:34:39.746Z,80.41
2022-11-20T17:37:06.804Z,80.25
2022-11-20T17:39:33.290Z,80.29
2022-11-20T17:42:20.135Z,80.57
2022-11-20T17:44:52.211Z,80.22
2022-11-20T17:47:19.736Z,80.53
2022-11-20T17:49:46.264Z,80.67
2022-11-20T17:52:12.786Z,80.04
2022-11-20T17:54:39.384Z,79.91
2022-11-20T17:57:25.249Z,80.34
2022-11-20T17:59:51.877Z,80.20
2022-11-20T18:02:18.342Z,79.92
2022-11-20T18:04:45.066Z,80.98
2022-11-20T18:07:11.698Z,85.18
2022-11-20T18:09:38.220Z,80.88
2022-11-20T18:12:10.448Z,80.41
2022-11-20T18:14:39.834Z,80.86
2022-11-20T18:17:10.855Z,80.76
2022-11-20T18:20:14.141Z,81.09
2022-11-20T18:22:38.247Z,81.19
2022-11-20T18:25:09.385Z,81.60
2022-11-20T18:27:36.089Z,81.62
2022-11-20T18:30:02.655Z,81.45
2022-11-20T18:32:29.178Z,81.23
2022-11-20T18:34:55.684Z,81.47
2022-11-20T18:37:22.469Z,81.73
2022-11-20T18:39:50.698Z,81.63
2022-11-20T18:42:35.950Z,81.67
2022-11-20T18:45:06.339Z,81.63
2022-11-20T18:47:37.466Z,81.61
2022-11-20T18:50:04.496Z,81.48
2022-11-20T18:52:34.228Z,81.77
2022-11-20T18:55:05.773Z,81.84
2022-11-20T18:57:32.789Z,81.93
2022-11-20T19:00:09.346Z,82.20
2022-11-20T19:02:41.461Z,81.96
2022-11-20T19:05:13.552Z,81.98
2022-11-20T19:07:40.381Z,82.05
2022-11-20T19:10:07.563Z,82.07
2022-11-20T19:12:37.018Z,81.90
2022-11-20T19:15:06.842Z,82.43
2022-11-20T19:17:36.451Z,82.17
2022-11-20T19:20:07.083Z,81.97
2022-11-20T19:22:36.508Z,82.22
2022-11-20T19:25:03.131Z,82.06
2022-11-20T19:27:29.708Z,82.45
2022-11-20T19:30:03.106Z,82.01
2022-11-20T19:32:30.029Z,82.39
2022-11-20T19:34:56.666Z,82.13
2022-11-20T19:37:25.259Z,82.21
2022-11-20T19:39:51.777Z,82.24
2022-11-20T19:42:18.647Z,82.09
2022-11-20T19:44:45.123Z,82.16
2022-11-20T19:47:14.503Z,82.35
2022-11-20T19:49:44.977Z,82.39
2022-11-20T19:52:11.506Z,82.71
2022-11-20T19:54:38.078Z,82.80
2022-11-20T19:57:04.932Z,82.54
2022-11-20T19:59:31.461Z,82.43
2022-11-20T20:01:58.416Z,82.55
2022-11-20T20:04:28.017Z,82.79
2022-11-20T20:06:58.211Z,83.00
2022-11-20T20:09:26.956Z,82.90
2022-11-20T20:11:53.730Z,83.11
2022-11-20T20:14:23.187Z,82.86
2022-11-20T20:16:49.728Z,83.07
2022-11-20T20:19:16.624Z,83.09
2022-11-20T20:21:44.097Z,83.22
2022-11-20T20:24:11.965Z,83.58
2022-11-20T20:26:38.704Z,83.40
2022-11-20T20:29:05.232Z,83.62
2022-11-20T20:31:33.680Z,83.15
2022-11-20T20:34:03.982Z,82.97
2022-11-20T20:36:30.658Z,83.20
2022-11-20T20:39:05.130Z,83.02
2022-11-20T20:41:31.852Z,83.19
2022-11-20T20:44:16.905Z,85.19
2022-11-20T20:46:43.908Z,83.08
2022-11-20T20:49:10.502Z,82.77
2022-11-20T20:51:37.343Z,82.52
2022-11-20T20:54:04.583Z,82.62
2022-11-20T20:56:31.218Z,82.90
2022-11-20T20:58:57.974Z,82.33
2022-11-20T21:01:28.728Z,82.45
2022-11-20T21:03:57.378Z,82.28
2022-11-20T21:06:24.625Z,82.40
2022-11-20T21:08:51.124Z,82.23
2022-11-20T21:11:19.228Z,82.36
2022-11-20T21:13:47.111Z,82.05
2022-11-20T21:16:15.915Z,81.98
2022-11-20T21:18:42.508Z,81.61
2022-11-20T21:21:30.869Z,81.61
2022-11-20T21:24:08.009Z,81.77
2022-11-20T21:26:34.495Z,81.20
2022-11-20T21:29:01.095Z,81.52
2022-11-20T21:31:28.596Z,81.21
2022-11-20T21:33:56.816Z,81.40
2022-11-20T21:36:28.837Z,81.15
2022-11-20T21:38:56.550Z,80.80
2022-11-20T21:41:24.969Z,80.94
2022-11-20T21:44:23.655Z,81.09
2022-11-20T21:46:40.768Z,80.75
2022-11-20T21:49:07.805Z,80.84
2022-11-20T21:51:34.405Z,80.71
2022-11-20T21:54:01.397Z,80.70
2022-11-20T21:56:27.979Z,81.00
2022-11-20T21:58:55.244Z,80.94
2022-11-20T22:01:26.023Z,80.68
2022-11-20T22:03:57.249Z,80.43
2022-11-20T22:06:32.446Z,80.10
2022-11-20T22:08:59.274Z,80.29
2022-11-20T22:11:25.923Z,80.08
2022-11-20T22:14:11.319Z,79.53
2022-11-20T22:16:38.358Z,79.83
2022-11-20T22:19:06.200Z,80.16
2022-11-20T22:21:33.038Z,79.78
2022-11-20T22:24:00.133Z,79.33
2022-11-20T22:26:29.457Z,79.34
2022-11-20T22:28:58.382Z,79.07
2022-11-20T22:31:27.310Z,79.29
2022-11-20T22:33:54.131Z,79.35
2022-11-20T22:36:26.431Z,79.55
2022-11-20T22:38:52.900Z,79.61
2022-11-20T22:41:25.199Z,80.05
2022-11-20T22:44:02.006Z,79.75
2022-11-20T22:46:30.703Z,79.96
2022-11-20T22:49:02.899Z,79.98
2022-11-20T22:51:35.198Z,79.94
2022-11-20T22:54:03.679Z,80.56
2022-11-20T22:56:30.411Z,81.22
2022-11-20T22:58:56.987Z,80.73
2022-11-20T23:01:34.348Z,80.58
2022-11-20T23:04:03.412Z,80.82
2022-11-20T23:06:32.130Z,80.66
2022-11-20T23:08:58.683Z,80.84
2022-11-20T23:11:30.071Z,80.77
2022-11-20T23:14:02.902Z,80.88
2022-11-20T23:16:30.454Z,81.01
2022-11-20T23:19:01.722Z,80.90
2022-11-20T23:21:28.754Z,81.73
2022-11-20T23:23:59.794Z,81.71
2022-11-20T23:26:32.336Z,81.50
2022-11-20T23:29:00.933Z,81.69
2022-11-20T23:31:33.003Z,81.50
2022-11-20T23:34:00.342Z,82.14
2022-11-20T23:36:27.219Z,82.43
2022-11-20T23:38:53.829Z,82.55
2022-11-20T23:41:20.466Z,82.48
2022-11-20T23:43:46.931Z,82.67
2022-11-20T23:46:16.527Z,82.70
2022-11-20T23:48:45.068Z,82.33
2022-11-20T23:51:11.934Z,82.53
2022-11-20T23:53:38.531Z,82.78
2022-11-20T23:56:05.540Z,82.42
2022-11-20T23:58:34.321Z,82.43
